Hamilton, IA (50116)

1:36 AM CDT on July 26, 2014 (GMT -0500)
Knoxville Municipal (KOXV) Elev 928 ft | 41.30 °N, 93.11 °W | Change Station

Current weather conditions updated 21 minutes ago

Clear
Clear
70 °F
Feels Like 70 °F
N
0
Wind Variable Wind from North

Today is forecast to be Much Warmer than yesterday. Afternoon thunderstorms.

Today
High -- | Low -- °F
--% Chance of Precip.
Yesterday
High -- | Low -- °F
Precip. -- in
6:01 AM 8:34 PM
Waning Crescent, 0% visible
Pressure 29.77 in
Visibility 10.0 miles
Clouds Clear
Dew Point 68 °F
Humidity 94%
Rainfall 0.00 in
Snow Depth Not available.
UV 0 out of 12
Pollen 5.20 out of 12
Air Quality Not available.
Flu Activity Not available.
METAR KOXV 260615Z AUTO 00000KT 10SM CLR 21/20 A2977 RMK AO2

More Conditions Fewer Conditions

Pressure 29.77 in
Visibility 10.0 miles
Clouds Clear
Dew Point 68 °F
Humidity 94%
Rainfall 0.00 in
Snow Depth Not available.
UV 0 out of 12
Pollen 5.20 out of 12
Air Quality Not available.
Flu Activity Not available.
METAR KOXV 260615Z AUTO 00000KT 10SM CLR 21/20 A2977 RMK AO2

More Conditions Fewer Conditions

10-Day Weather Forecast

Almanac

Astronomy

Jul. 26, 2014 Rise Set
Actual Time 6:01 AM CDT 8:34 PM CDT
Civil Twilight 5:29 AM CDT 9:05 PM CDT
Nautical Twilight 4:50 AM CDT 9:45 PM CDT
Astronomical Twilight 4:06 AM CDT 10:29 PM CDT
Moon 5:55 AM CDT 8:08 PM CDT
Length of Visible Light 15h 35m
Length of Day
14h 32m
Tomorrow will be 1m 54s shorter.
Waning Crescent, 0% of the Moon is Illuminated
Today
Waning Crescent
Jul 26
New
Aug 3
First Quarter
Aug 10
Full
Aug 17
Last Quarter

Today's Extremes

State Highs State Lows

Community

WunderPhotos

Upload Photos

1,737,524 photos uploaded!

Nearby

Snow Depth

Station Depth Elevation
No new snow has been reported.

Earthquake Activity

City Distance Mag. Time & Date
No recent earthquake activity has been reported nearby.
Minimum magnitude displayed is 2.5.

Coastal Water Temperatures

Place Temperature
No Stations Reporting

Nearby Weather Stations

Station Location Temp. Heat Index Dew Point Humidity Wind Precip. Elev Updated Type
MesoWest MELCHR , Dallas, IA 70 °F - - - North  at  - 0.00 in / hr 955 ft 12:00 AM CDT MADIS
Hunters Ridge, Pella, IA 70.3 °F - 69 °F 95% ESE  at  0.0 mph 0.00 in / hr 840 ft 1:23 AM CDT Normal
Oskaloosa, IA 69.7 °F - 66 °F 89% North  at  0.0 mph 0.00 in / hr 846 ft 1:35 AM CDT Rapid Fire
BankerWeather, Pella, IA 69.6 °F - 66 °F 90% WNW  at  0.0 mph - / hr 850 ft 1:29 AM CDT Normal
Otley, Otley, IA 69.8 °F - 68 °F 93% ENE  at  0.0 mph 0.00 in / hr 810 ft 1:35 AM CDT Rapid Fire
Rural Pleasantville, Pleasantville, IA 69.1 °F - 65 °F 86% South  at  1.7 mph - / hr 843 ft 1:34 AM CDT Normal
MesoWest CHARIT , Chariton, IA 73 °F 71 °F - - North  at  - 0.00 in / hr 1018 ft 12:05 AM CDT MADIS
farm, Chariton, IA 70.7 °F - 69 °F 95% East  at  0.0 mph 0.00 in / hr 971 ft 1:35 AM CDT Rapid Fire

Show More Stations Show Fewer Stations